Time;durP1;ratioP1;P1;durP2;ratioP2;P2;SDS_P1;SDS_P2;PMS_P1;PMS_P2;Temp;Humidity;BMP_temperature;BMP_pressure;BME280_temperature;BME280_humidity;BME280_pressure;Samples;Min_cycle;Max_cycle;Signal;HPM_P1;HPM_P2
2022/10/28 00:01:05;;;;;;;;;;;13.10;99.90;;;;;;4940885;28;19914;-75
2022/10/28 00:03:31;;;;;;;;;;;13.30;99.90;;;;;;4951204;28;20293;-75
2022/10/28 00:06:01;;;;;;;;;;;13.40;99.90;;;;;;4942205;28;19910;-75
2022/10/28 00:08:26;;;;;;;;;;;13.40;99.90;;;;;;4939249;28;19918;-75
2022/10/28 00:10:59;;;;;;;;;;;13.40;99.90;;;;;;4943203;28;19911;-75
2022/10/28 00:13:25;;;;;;;;;;;13.40;99.90;;;;;;4945834;28;19957;-75
2022/10/28 00:15:50;;;;;;;;;;;13.40;99.90;;;;;;4943828;28;19914;-74
2022/10/28 00:18:16;;;;;;;;;;;13.50;99.90;;;;;;4944125;28;20033;-75
2022/10/28 00:20:41;;;;;;;;;;;13.50;99.90;;;;;;4946690;28;19913;-75
2022/10/28 00:23:06;;;;;;;;;;;13.50;99.90;;;;;;4945284;28;19914;-75
2022/10/28 00:25:32;;;;;;;;;;;13.60;99.90;;;;;;4948806;28;19910;-74
2022/10/28 00:27:57;;;;;;;;;;;13.60;99.90;;;;;;4945968;28;20546;-75
2022/10/28 00:30:22;;;;;;;;;;;13.70;99.90;;;;;;4940881;28;19926;-75
2022/10/28 00:32:48;;;;;;;;;;;13.60;99.90;;;;;;4948434;28;19910;-74
2022/10/28 00:35:13;;;;;;;;;;;13.80;99.90;;;;;;4943739;28;19945;-75
2022/10/28 00:37:39;;;;;;;;;;;13.80;99.90;;;;;;4942605;28;20361;-75
2022/10/28 00:40:04;;;;;;;;;;;13.80;99.90;;;;;;4946351;28;19918;-74
2022/10/28 00:42:30;;;;;;;;;;;13.80;99.90;;;;;;4946747;28;19910;-75
2022/10/28 00:44:59;;;;;;;;;;;13.80;99.90;;;;;;4948437;28;19914;-75
2022/10/28 00:47:31;;;;;;;;;;;13.90;99.90;;;;;;4945814;28;20326;-75
2022/10/28 00:50:22;;;;;;;;;;;14.00;99.90;;;;;;4942423;28;19910;-75
2022/10/28 00:52:49;;;;;;;;;;;14.00;99.90;;;;;;4943899;28;19915;-75
2022/10/28 00:55:16;;;;;;;;;;;13.90;99.90;;;;;;4947319;28;20349;-75
2022/10/28 00:57:42;;;;;;;;;;;13.80;99.90;;;;;;4938480;28;19966;-75
2022/10/28 01:00:08;;;;;;;;;;;13.70;99.90;;;;;;4943665;28;19918;-75
2022/10/28 01:02:35;;;;;;;;;;;13.60;99.90;;;;;;4952244;28;20024;-75
2022/10/28 01:05:01;;;;;;;;;;;13.70;99.90;;;;;;4943821;28;19910;-75
2022/10/28 01:07:27;;;;;;;;;;;13.70;99.90;;;;;;4943447;28;20813;-75
2022/10/28 01:09:52;;;;;;;;;;;13.70;99.90;;;;;;4948972;28;19953;-75
2022/10/28 01:12:34;;;;;;;;;;;13.70;99.90;;;;;;4948498;28;20464;-75
2022/10/28 01:15:18;;;;;;;;;;;13.70;99.90;;;;;;4944322;28;19965;-75
2022/10/28 01:17:57;;;;;;;;;;;13.70;99.90;;;;;;4940289;28;19914;-75
2022/10/28 01:20:26;;;;;;;;;;;13.50;99.90;;;;;;4942581;28;20314;-75
2022/10/28 01:22:51;;;;;;;;;;;13.40;99.90;;;;;;4944048;28;20298;-75
2022/10/28 01:25:20;;;;;;;;;;;13.40;99.90;;;;;;4953960;28;20034;-75
2022/10/28 01:27:51;;;;;;;;;;;13.40;99.90;;;;;;4948462;28;19957;-75
2022/10/28 01:30:18;;;;;;;;;;;13.40;99.90;;;;;;4940089;28;19918;-75
2022/10/28 01:32:47;;;;;;;;;;;13.30;99.90;;;;;;4946563;28;20534;-75
2022/10/28 01:35:25;;;;;;;;;;;13.20;99.90;;;;;;4944875;28;20519;-75
2022/10/28 01:37:56;;;;;;;;;;;13.30;99.90;;;;;;4948763;28;19918;-75
2022/10/28 01:40:24;;;;;;;;;;;13.40;99.90;;;;;;4951359;28;19917;-75
2022/10/28 01:42:50;;;;;;;;;;;13.30;99.90;;;;;;4937434;28;19940;-75
2022/10/28 01:45:33;;;;;;;;;;;13.20;99.90;;;;;;4941221;28;19918;-75
2022/10/28 01:48:05;;;;;;;;;;;13.20;99.90;;;;;;4942851;28;19921;-75
2022/10/28 01:50:38;;;;;;;;;;;13.20;99.90;;;;;;4942683;28;19919;-75
2022/10/28 01:53:09;;;;;;;;;;;13.10;99.90;;;;;;4941053;28;19915;-75
2022/10/28 01:55:37;;;;;;;;;;;13.10;99.90;;;;;;4939792;28;19923;-75
2022/10/28 01:58:03;;;;;;;;;;;13.10;99.90;;;;;;4941756;28;19910;-75
2022/10/28 02:00:30;;;;;;;;;;;13.10;99.90;;;;;;4952519;28;19911;-75
2022/10/28 02:02:56;;;;;;;;;;;13.10;99.90;;;;;;4937369;28;19918;-75
2022/10/28 02:05:38;;;;;;;;;;;13.10;99.90;;;;;;4946958;28;19920;-75
2022/10/28 02:08:14;;;;;;;;;;;13.10;99.90;;;;;;4940040;28;19929;-75
2022/10/28 02:10:46;;;;;;;;;;;13.10;99.90;;;;;;4942106;28;19956;-75
2022/10/28 02:13:13;;;;;;;;;;;12.90;99.90;;;;;;4953181;28;20104;-75
2022/10/28 02:15:44;;;;;;;;;;;12.90;99.90;;;;;;4939768;28;19918;-75
2022/10/28 02:18:17;;;;;;;;;;;12.80;99.90;;;;;;4939794;28;19910;-75
2022/10/28 02:20:46;;;;;;;;;;;12.80;99.90;;;;;;4938754;28;19917;-76
2022/10/28 02:23:32;;;;;;;;;;;12.70;99.90;;;;;;4939665;28;19917;-74
2022/10/28 02:26:01;;;;;;;;;;;12.70;99.90;;;;;;4949767;28;19914;-75
2022/10/28 02:28:46;;;;;;;;;;;12.60;99.90;;;;;;4939464;28;19910;-75
2022/10/28 02:31:21;;;;;;;;;;;12.60;99.90;;;;;;4944999;28;19929;-75
2022/10/28 02:33:49;;;;;;;;;;;12.50;99.90;;;;;;4940282;28;20000;-74
2022/10/28 02:36:15;;;;;;;;;;;12.50;99.90;;;;;;4947201;28;19965;-75
2022/10/28 02:38:48;;;;;;;;;;;12.40;99.90;;;;;;4939841;28;19953;-75
2022/10/28 02:41:22;;;;;;;;;;;12.50;99.90;;;;;;4934279;28;19914;-75
2022/10/28 02:43:50;;;;;;;;;;;12.30;99.90;;;;;;4946397;28;19920;-75
2022/10/28 02:46:17;;;;;;;;;;;12.20;99.90;;;;;;4945865;28;19910;-75
2022/10/28 02:48:45;;;;;;;;;;;12.20;99.90;;;;;;4948165;28;19910;-75
2022/10/28 02:51:14;;;;;;;;;;;12.20;99.90;;;;;;4947338;28;19910;-75
2022/10/28 02:53:58;;;;;;;;;;;12.30;99.90;;;;;;4941108;28;20739;-75
2022/10/28 02:56:23;;;;;;;;;;;12.20;99.90;;;;;;4944196;28;19945;-74
2022/10/28 02:58:49;;;;;;;;;;;12.10;99.90;;;;;;4941714;28;20401;-75
2022/10/28 03:01:14;;;;;;;;;;;12.00;99.90;;;;;;4949030;28;19918;-75
2022/10/28 03:03:40;;;;;;;;;;;11.90;99.90;;;;;;4944037;28;19960;-75
2022/10/28 03:06:05;;;;;;;;;;;11.90;99.90;;;;;;4940557;28;20222;-74
2022/10/28 03:08:31;;;;;;;;;;;11.80;99.90;;;;;;4935249;28;19915;-75
2022/10/28 03:10:59;;;;;;;;;;;11.70;99.90;;;;;;4938908;28;19921;-74
2022/10/28 03:13:25;;;;;;;;;;;11.60;99.90;;;;;;4941846;28;20253;-76
2022/10/28 03:15:50;;;;;;;;;;;11.60;99.90;;;;;;4951102;28;19922;-77
2022/10/28 03:18:15;;;;;;;;;;;11.60;99.90;;;;;;4939228;28;19911;-76
2022/10/28 03:20:41;;;;;;;;;;;11.40;99.90;;;;;;4947932;28;20412;-74
2022/10/28 03:23:06;;;;;;;;;;;11.50;99.90;;;;;;4941834;28;19970;-75
2022/10/28 03:25:32;;;;;;;;;;;11.40;99.90;;;;;;4942709;28;19993;-74
2022/10/28 03:27:57;;;;;;;;;;;11.30;99.90;;;;;;4945550;28;19914;-78
2022/10/28 03:30:22;;;;;;;;;;;11.20;99.90;;;;;;4944819;28;19957;-74
2022/10/28 03:32:48;;;;;;;;;;;11.20;99.90;;;;;;4941363;28;19910;-74
2022/10/28 03:35:13;;;;;;;;;;;11.20;99.90;;;;;;4940427;28;19914;-74
2022/10/28 03:37:42;;;;;;;;;;;11.20;99.90;;;;;;4944943;28;19969;-73
2022/10/28 03:40:11;;;;;;;;;;;11.10;99.90;;;;;;4944215;28;20560;-77
2022/10/28 03:42:38;;;;;;;;;;;11.10;99.90;;;;;;4937972;28;20669;-74
2022/10/28 03:45:04;;;;;;;;;;;11.10;99.90;;;;;;4939849;28;20346;-74
2022/10/28 03:47:29;;;;;;;;;;;11.10;99.90;;;;;;4948968;28;19972;-75
2022/10/28 03:49:55;;;;;;;;;;;11.10;99.90;;;;;;4945462;28;19910;-75
2022/10/28 03:52:20;;;;;;;;;;;11.00;99.90;;;;;;4954340;28;19917;-74
2022/10/28 03:54:46;;;;;;;;;;;11.10;99.90;;;;;;4948289;28;19919;-74
2022/10/28 03:57:11;;;;;;;;;;;11.00;99.90;;;;;;4953967;28;19918;-75
2022/10/28 03:59:36;;;;;;;;;;;11.00;99.90;;;;;;4951153;28;19914;-75
2022/10/28 04:02:02;;;;;;;;;;;10.90;99.90;;;;;;4961894;28;20395;-74
2022/10/28 04:04:27;;;;;;;;;;;11.00;99.90;;;;;;4944944;28;19918;-74
2022/10/28 04:06:53;;;;;;;;;;;10.90;99.90;;;;;;4949625;28;19936;-75
2022/10/28 04:09:18;;;;;;;;;;;10.90;99.90;;;;;;4957895;28;19910;-74
2022/10/28 04:11:46;;;;;;;;;;;10.80;99.90;;;;;;4946138;28;19910;-75
2022/10/28 04:14:11;;;;;;;;;;;10.80;99.90;;;;;;4937460;28;19921;-75
2022/10/28 04:16:37;;;;;;;;;;;10.80;99.90;;;;;;4937789;28;19922;-75
2022/10/28 04:19:02;;;;;;;;;;;10.70;99.90;;;;;;4938346;28;20309;-75
2022/10/28 04:21:28;;;;;;;;;;;10.60;99.90;;;;;;4957912;28;19980;-75
2022/10/28 04:23:53;;;;;;;;;;;10.70;99.90;;;;;;4950163;28;19911;-74
2022/10/28 04:26:18;;;;;;;;;;;10.70;99.90;;;;;;4941638;28;19973;-74
2022/10/28 04:28:44;;;;;;;;;;;10.60;99.90;;;;;;4943805;28;19918;-74
2022/10/28 04:31:11;;;;;;;;;;;10.60;99.90;;;;;;4951060;28;20309;-75
2022/10/28 04:33:36;;;;;;;;;;;10.50;99.90;;;;;;4955878;28;20378;-75
2022/10/28 04:36:01;;;;;;;;;;;10.50;99.90;;;;;;4954896;28;19914;-74
2022/10/28 04:38:27;;;;;;;;;;;10.50;99.90;;;;;;4954482;28;19922;-75
2022/10/28 04:40:52;;;;;;;;;;;10.50;99.90;;;;;;4950645;28;19918;-75
2022/10/28 04:43:18;;;;;;;;;;;10.50;99.90;;;;;;4948872;28;19917;-74
2022/10/28 04:45:44;;;;;;;;;;;10.50;99.90;;;;;;4952394;28;19921;-74
2022/10/28 04:48:09;;;;;;;;;;;10.50;99.90;;;;;;4935963;28;19910;-74
2022/10/28 04:50:35;;;;;;;;;;;10.50;99.90;;;;;;4952333;28;20364;-74
2022/10/28 04:53:00;;;;;;;;;;;10.50;99.90;;;;;;4940595;28;19910;-74
2022/10/28 04:55:26;;;;;;;;;;;10.40;99.90;;;;;;4958991;28;19914;-74
2022/10/28 04:57:52;;;;;;;;;;;10.40;99.90;;;;;;4935834;28;19989;-75
2022/10/28 05:00:17;;;;;;;;;;;10.30;99.90;;;;;;4950143;28;19960;-75
2022/10/28 05:02:42;;;;;;;;;;;10.40;99.90;;;;;;4941667;28;19954;-74
2022/10/28 05:05:08;;;;;;;;;;;10.30;99.90;;;;;;4937812;28;19949;-75
2022/10/28 05:07:33;;;;;;;;;;;10.40;99.90;;;;;;4935023;28;19992;-74
2022/10/28 05:09:59;;;;;;;;;;;10.40;99.90;;;;;;4951640;28;19918;-74
2022/10/28 05:12:24;;;;;;;;;;;10.40;99.90;;;;;;4944666;28;19917;-75
2022/10/28 05:14:49;;;;;;;;;;;10.40;99.90;;;;;;4944309;28;19914;-75
2022/10/28 05:17:15;;;;;;;;;;;10.30;99.90;;;;;;4942292;28;19956;-74
2022/10/28 05:19:44;;;;;;;;;;;10.40;99.90;;;;;;4948568;28;20370;-75
2022/10/28 05:22:09;;;;;;;;;;;10.40;99.90;;;;;;4934632;28;19997;-75
2022/10/28 05:24:34;;;;;;;;;;;10.40;99.90;;;;;;4949220;28;20002;-75
2022/10/28 05:27:00;;;;;;;;;;;10.40;99.90;;;;;;4957368;28;20334;-75
2022/10/28 05:29:25;;;;;;;;;;;10.40;99.90;;;;;;4951891;28;19918;-75
2022/10/28 05:31:51;;;;;;;;;;;10.40;99.90;;;;;;4939564;28;19980;-75
2022/10/28 05:34:16;;;;;;;;;;;10.40;99.90;;;;;;4954842;28;19964;-75
2022/10/28 05:36:42;;;;;;;;;;;10.40;99.90;;;;;;4948173;28;19919;-74
2022/10/28 05:39:07;;;;;;;;;;;10.50;99.90;;;;;;4938377;28;20350;-75
2022/10/28 05:41:32;;;;;;;;;;;10.60;99.90;;;;;;4948341;28;19914;-75
2022/10/28 05:43:58;;;;;;;;;;;10.60;99.90;;;;;;4959660;28;19927;-75
2022/10/28 05:46:23;;;;;;;;;;;10.70;99.90;;;;;;4946529;28;19918;-75
2022/10/28 05:48:49;;;;;;;;;;;10.80;99.90;;;;;;4950017;28;19917;-75
2022/10/28 05:51:14;;;;;;;;;;;10.90;99.90;;;;;;4946533;28;20343;-75
2022/10/28 05:53:41;;;;;;;;;;;10.90;99.90;;;;;;4938683;28;20547;-75
2022/10/28 05:56:07;;;;;;;;;;;11.00;99.90;;;;;;4937244;28;20426;-75
2022/10/28 05:58:32;;;;;;;;;;;11.20;99.90;;;;;;4947555;28;20357;-75
2022/10/28 06:00:57;;;;;;;;;;;11.30;99.90;;;;;;4948132;28;19917;-74
2022/10/28 06:03:23;;;;;;;;;;;11.30;99.90;;;;;;4939579;28;19921;-75
2022/10/28 06:05:48;;;;;;;;;;;11.40;99.90;;;;;;4941029;28;20057;-75
2022/10/28 06:08:14;;;;;;;;;;;11.40;99.90;;;;;;4946889;28;19984;-75
2022/10/28 06:10:39;;;;;;;;;;;11.40;99.90;;;;;;4939869;28;19918;-75
2022/10/28 06:13:05;;;;;;;;;;;11.40;99.90;;;;;;4943841;29;19910;-75
2022/10/28 06:15:31;;;;;;;;;;;11.40;99.90;;;;;;4946608;28;19910;-75
2022/10/28 06:17:56;;;;;;;;;;;11.40;99.90;;;;;;4950145;28;19917;-75
2022/10/28 06:20:21;;;;;;;;;;;11.30;99.90;;;;;;4940325;28;19910;-75
2022/10/28 06:22:48;;;;;;;;;;;11.40;99.90;;;;;;4952517;28;19977;-75
2022/10/28 06:25:13;;;;;;;;;;;11.30;99.90;;;;;;4944615;28;19918;-75
2022/10/28 06:27:39;;;;;;;;;;;11.30;99.90;;;;;;4940346;28;19910;-75
2022/10/28 06:30:04;;;;;;;;;;;11.40;99.90;;;;;;4941426;28;19919;-76
2022/10/28 06:32:30;;;;;;;;;;;11.30;99.90;;;;;;4948376;28;20374;-75
2022/10/28 06:34:55;;;;;;;;;;;11.40;99.90;;;;;;4944363;28;20001;-75
2022/10/28 06:37:21;;;;;;;;;;;11.30;99.90;;;;;;4947595;28;20357;-74
2022/10/28 06:39:51;;;;;;;;;;;11.50;99.90;;;;;;4939611;28;19930;-75
2022/10/28 06:42:17;;;;;;;;;;;11.80;99.90;;;;;;4946291;28;20457;-75
2022/10/28 06:44:42;;;;;;;;;;;11.90;99.90;;;;;;4952704;28;20009;-74
2022/10/28 06:47:08;;;;;;;;;;;12.10;99.90;;;;;;4945798;28;19911;-75
2022/10/28 06:49:33;;;;;;;;;;;12.10;99.90;;;;;;4938962;28;19910;-73
2022/10/28 06:51:59;;;;;;;;;;;12.20;99.90;;;;;;4947643;28;19911;-75
2022/10/28 06:54:24;;;;;;;;;;;12.30;99.90;;;;;;4946480;28;20375;-74
2022/10/28 06:56:50;;;;;;;;;;;12.30;99.90;;;;;;4948257;28;19925;-75
2022/10/28 06:59:15;;;;;;;;;;;12.30;99.90;;;;;;4953145;28;19926;-75
2022/10/28 07:01:40;;;;;;;;;;;12.50;99.90;;;;;;4946129;28;19917;-75
2022/10/28 07:04:07;;;;;;;;;;;12.50;99.90;;;;;;4949755;28;20349;-75
2022/10/28 07:06:33;;;;;;;;;;;12.60;99.90;;;;;;4940935;28;19915;-75
2022/10/28 07:08:58;;;;;;;;;;;12.60;99.90;;;;;;4952464;28;19921;-75
2022/10/28 07:11:24;;;;;;;;;;;12.60;99.90;;;;;;4952993;28;19976;-75
2022/10/28 07:13:49;;;;;;;;;;;12.70;99.90;;;;;;4947987;28;20489;-75
2022/10/28 07:16:14;;;;;;;;;;;12.90;99.90;;;;;;4944087;28;19914;-74
2022/10/28 07:18:40;;;;;;;;;;;13.10;99.90;;;;;;4949732;28;19910;-75
2022/10/28 07:21:05;;;;;;;;;;;13.20;99.90;;;;;;4955055;28;19965;-75
2022/10/28 07:23:31;;;;;;;;;;;13.30;99.90;;;;;;4956648;28;19910;-75
2022/10/28 07:25:57;;;;;;;;;;;13.40;99.90;;;;;;4950595;28;19918;-75
2022/10/28 07:28:23;;;;;;;;;;;13.60;99.90;;;;;;4947312;28;20568;-75
2022/10/28 07:30:48;;;;;;;;;;;13.70;99.90;;;;;;4944383;28;19922;-75
2022/10/28 07:33:14;;;;;;;;;;;13.80;99.90;;;;;;4941716;28;19994;-75
2022/10/28 07:35:40;;;;;;;;;;;13.90;99.90;;;;;;4947682;28;19921;-75
2022/10/28 07:38:05;;;;;;;;;;;14.20;99.90;;;;;;4939289;28;19929;-75
2022/10/28 07:40:30;;;;;;;;;;;14.40;99.90;;;;;;4944624;28;19914;-75
2022/10/28 07:42:56;;;;;;;;;;;14.50;99.90;;;;;;4958094;28;19918;-74
2022/10/28 07:45:22;;;;;;;;;;;14.60;99.90;;;;;;4942444;28;20333;-75
2022/10/28 07:47:47;;;;;;;;;;;14.70;99.90;;;;;;4950244;28;19957;-75
2022/10/28 07:50:13;;;;;;;;;;;14.90;99.90;;;;;;4946268;28;19921;-75
2022/10/28 07:52:38;;;;;;;;;;;15.10;99.90;;;;;;4946316;28;19966;-75
2022/10/28 07:55:04;;;;;;;;;;;15.30;99.90;;;;;;4951659;28;19921;-75
2022/10/28 07:57:30;;;;;;;;;;;15.50;99.90;;;;;;4942940;28;19957;-74
2022/10/28 07:59:55;;;;;;;;;;;15.60;99.90;;;;;;4944794;28;20567;-74
2022/10/28 08:02:21;;;;;;;;;;;15.70;99.90;;;;;;4950470;28;19914;-74
2022/10/28 08:04:47;;;;;;;;;;;15.90;99.90;;;;;;4945711;28;19914;-74
2022/10/28 08:07:13;;;;;;;;;;;16.10;99.90;;;;;;4945313;28;20054;-74
2022/10/28 08:09:39;;;;;;;;;;;16.20;99.90;;;;;;4950128;28;19911;-76
2022/10/28 08:12:05;;;;;;;;;;;16.20;99.90;;;;;;4946447;28;19918;-75
2022/10/28 08:14:31;;;;;;;;;;;16.20;99.90;;;;;;4950068;28;19914;-76
2022/10/28 08:16:56;;;;;;;;;;;16.20;99.90;;;;;;4943828;28;20504;-77
2022/10/28 08:19:21;;;;;;;;;;;16.30;99.90;;;;;;4939618;28;20290;-77
2022/10/28 08:21:47;;;;;;;;;;;16.40;99.90;;;;;;4933762;28;20661;-79
2022/10/28 08:24:12;;;;;;;;;;;16.70;99.90;;;;;;4951828;28;19910;-82
2022/10/28 08:26:38;;;;;;;;;;;16.80;99.90;;;;;;4945056;28;19917;-81
2022/10/28 08:29:03;;;;;;;;;;;16.80;99.90;;;;;;4943808;28;21675;-82
2022/10/28 08:31:30;;;;;;;;;;;16.80;99.90;;;;;;4938892;28;19926;-80
2022/10/28 08:33:56;;;;;;;;;;;16.70;99.90;;;;;;4945783;28;20008;-77
2022/10/28 08:36:21;;;;;;;;;;;16.70;99.90;;;;;;4942634;28;19971;-79
2022/10/28 08:38:46;;;;;;;;;;;16.60;99.90;;;;;;4947851;28;19936;-78
2022/10/28 08:41:21;;;;;;;;;;;16.60;99.90;;;;;;4948352;29;19911;-79
2022/10/28 08:44:17;;;;;;;;;;;16.60;99.90;;;;;;4942670;28;20291;-79
2022/10/28 08:46:50;;;;;;;;;;;16.50;99.90;;;;;;4939446;29;19911;-79
2022/10/28 08:49:17;;;;;;;;;;;16.40;99.90;;;;;;4937725;28;19942;-79
2022/10/28 08:51:46;;;;;;;;;;;16.30;99.90;;;;;;4939321;28;19917;-79
2022/10/28 08:54:16;;;;;;;;;;;16.20;99.90;;;;;;4947944;29;19944;-78
2022/10/28 08:56:44;;;;;;;;;;;16.40;99.90;;;;;;4939359;28;19922;-78
2022/10/28 08:59:18;;;;;;;;;;;16.60;99.90;;;;;;4942948;29;20381;-79
2022/10/28 09:01:48;;;;;;;;;;;17.00;99.90;;;;;;4940384;29;19914;-79
2022/10/28 09:04:20;;;;;;;;;;;17.40;99.90;;;;;;4945774;29;19914;-78
2022/10/28 09:06:45;;;;;;;;;;;17.60;99.90;;;;;;4948304;28;20146;-79
2022/10/28 09:09:15;;;;;;;;;;;17.60;99.90;;;;;;4941729;28;19936;-78
2022/10/28 09:11:59;;;;;;;;;;;17.40;99.90;;;;;;4939673;28;20434;-78
2022/10/28 09:14:40;;;;;;;;;;;17.40;99.90;;;;;;4929520;28;19917;-78
2022/10/28 09:17:09;;;;;;;;;;;17.70;99.90;;;;;;4937931;28;19914;-78
2022/10/28 09:19:54;;;;;;;;;;;18.30;99.90;;;;;;4943222;28;19917;-78
2022/10/28 09:22:26;;;;;;;;;;;18.70;99.90;;;;;;4944746;29;19974;-78
2022/10/28 09:24:52;;;;;;;;;;;19.00;99.90;;;;;;4943545;29;19918;-78
2022/10/28 09:27:18;;;;;;;;;;;19.20;99.90;;;;;;4942821;28;20378;-79
2022/10/28 09:29:43;;;;;;;;;;;19.20;99.90;;;;;;4943987;29;19914;-78
2022/10/28 09:32:29;;;;;;;;;;;19.00;99.90;;;;;;4945959;29;19919;-78
2022/10/28 09:34:58;;;;;;;;;;;18.90;99.90;;;;;;4925773;29;20356;-77
2022/10/28 09:37:31;;;;;;;;;;;18.90;99.90;;;;;;4944423;28;19917;-78
2022/10/28 09:40:03;;;;;;;;;;;19.00;99.90;;;;;;4939871;28;19915;-76
2022/10/28 09:42:34;;;;;;;;;;;18.90;99.90;;;;;;4949225;28;19921;-76
2022/10/28 09:45:11;;;;;;;;;;;19.10;99.90;;;;;;4949883;28;19911;-76
2022/10/28 09:47:40;;;;;;;;;;;19.40;99.90;;;;;;4945703;28;19961;-79
2022/10/28 09:50:14;;;;;;;;;;;19.70;99.90;;;;;;4941283;29;20515;-77
2022/10/28 09:53:06;;;;;;;;;;;20.30;99.90;;;;;;4942629;28;19918;-77
2022/10/28 09:55:31;;;;;;;;;;;20.90;99.90;;;;;;4931976;29;19969;-77
2022/10/28 09:57:57;;;;;;;;;;;21.10;99.90;;;;;;4944359;28;19919;-73
2022/10/28 10:00:23;;;;;;;;;;;21.00;99.90;;;;;;4946847;28;19910;-76
2022/10/28 10:02:50;;;;;;;;;;;20.60;99.90;;;;;;4940374;29;19910;-76
2022/10/28 10:05:17;;;;;;;;;;;20.60;99.90;;;;;;4949675;28;19914;-77
2022/10/28 10:07:57;;;;;;;;;;;20.60;99.90;;;;;;4945416;28;20175;-77
2022/10/28 10:10:25;;;;;;;;;;;20.70;99.90;;;;;;4949648;28;19933;-76
2022/10/28 10:12:52;;;;;;;;;;;20.50;99.90;;;;;;4948062;28;19911;-76
2022/10/28 10:15:29;;;;;;;;;;;20.10;99.90;;;;;;4949912;28;19915;-76
2022/10/28 10:17:56;;;;;;;;;;;19.80;99.90;;;;;;4949450;28;19910;-76
2022/10/28 10:20:22;;;;;;;;;;;19.70;99.90;;;;;;4949799;28;19911;-77
2022/10/28 10:22:48;;;;;;;;;;;19.80;99.90;;;;;;4949082;29;20322;-77
2022/10/28 10:25:16;;;;;;;;;;;20.00;99.90;;;;;;4948810;28;19977;-76
2022/10/28 10:27:42;;;;;;;;;;;20.00;99.90;;;;;;4949537;29;20453;-77
2022/10/28 10:30:14;;;;;;;;;;;20.20;99.90;;;;;;4949005;28;19942;-77
2022/10/28 10:32:45;;;;;;;;;;;20.30;99.90;;;;;;4950046;28;19906;-77
2022/10/28 10:35:22;;;;;;;;;;;20.30;99.90;;;;;;4949794;28;20321;-77
2022/10/28 10:37:48;;;;;;;;;;;20.40;99.90;;;;;;4949206;28;19917;-76
2022/10/28 10:40:22;;;;;;;;;;;20.60;99.90;;;;;;4948874;29;20001;-76
2022/10/28 10:42:48;;;;;;;;;;;21.00;99.90;;;;;;4949115;28;19910;-76
2022/10/28 10:45:13;;;;;;;;;;;21.40;99.60;;;;;;4949701;28;19953;-75
2022/10/28 10:47:39;;;;;;;;;;;22.00;99.50;;;;;;4949528;29;19948;-76
2022/10/28 10:50:23;;;;;;;;;;;22.20;96.00;;;;;;4948961;29;19906;-76
2022/10/28 10:52:54;;;;;;;;;;;22.30;95.80;;;;;;4949228;28;19907;-76
2022/10/28 10:55:39;;;;;;;;;;;23.80;94.10;;;;;;4949359;28;19910;-76
2022/10/28 10:58:05;;;;;;;;;;;26.20;82.60;;;;;;4936152;29;20150;-76
2022/10/28 11:00:43;;;;;;;;;;;27.70;72.80;;;;;;4949660;28;19906;-77
2022/10/28 11:03:15;;;;;;;;;;;29.20;66.60;;;;;;4949289;28;19994;-76
2022/10/28 11:05:46;;;;;;;;;;;30.20;59.00;;;;;;4949440;28;19906;-77
2022/10/28 11:08:16;;;;;;;;;;;30.90;57.70;;;;;;4943592;28;19957;-77
2022/10/28 11:10:42;;;;;;;;;;;31.30;55.00;;;;;;4948960;28;19910;-76
2022/10/28 11:13:23;;;;;;;;;;;32.30;53.40;;;;;;4948863;29;19919;-77
2022/10/28 11:15:58;;;;;;;;;;;31.90;53.40;;;;;;4948751;28;20362;-77
2022/10/28 11:18:23;;;;;;;;;;;31.30;54.10;;;;;;4948952;28;19922;-76
2022/10/28 11:21:03;;;;;;;;;;;32.80;52.20;;;;;;4949218;29;19906;-76
2022/10/28 11:23:35;;;;;;;;;;;33.90;49.80;;;;;;4949069;28;19997;-76
2022/10/28 11:26:05;;;;;;;;;;;34.20;49.00;;;;;;4949344;28;20289;-76
2022/10/28 11:28:49;;;;;;;;;;;33.90;48.20;;;;;;4948465;28;20285;-76
2022/10/28 11:31:32;;;;;;;;;;;34.40;47.90;;;;;;4948997;28;19918;-76
2022/10/28 11:34:12;;;;;;;;;;;34.60;47.00;;;;;;4949089;28;19915;-76
2022/10/28 11:36:49;;;;;;;;;;;35.30;47.70;;;;;;4949819;28;19953;-77
2022/10/28 11:39:37;;;;;;;;;;;35.70;46.10;;;;;;4952647;28;19911;-77
2022/10/28 11:42:10;;;;;;;;;;;35.50;45.90;;;;;;4951662;28;19917;-77
2022/10/28 11:44:44;;;;;;;;;;;35.70;44.70;;;;;;4951845;28;19910;-77
2022/10/28 11:47:24;;;;;;;;;;;35.70;44.40;;;;;;4952325;28;19914;-76
2022/10/28 11:50:01;;;;;;;;;;;34.70;45.90;;;;;;4952212;29;19906;-76
2022/10/28 11:52:34;;;;;;;;;;;34.50;45.40;;;;;;4952276;28;20001;-77
2022/10/28 11:55:13;;;;;;;;;;;33.90;45.90;;;;;;4952260;28;20020;-75
2022/10/28 11:57:51;;;;;;;;;;;33.70;48.00;;;;;;4952396;28;19997;-76
2022/10/28 12:00:27;;;;;;;;;;;34.30;47.20;;;;;;4951449;28;19910;-76
2022/10/28 12:03:12;;;;;;;;;;;31.70;49.70;;;;;;4952027;28;20389;-76
2022/10/28 12:05:58;;;;;;;;;;;28.20;56.20;;;;;;4952192;28;19978;-76
2022/10/28 12:08:38;;;;;;;;;;;29.00;56.20;;;;;;4946420;28;19940;-77
2022/10/28 12:11:10;;;;;;;;;;;29.10;55.60;;;;;;4951544;28;20013;-77
2022/10/28 12:13:47;;;;;;;;;;;27.90;58.50;;;;;;4950634;29;19932;-77
2022/10/28 12:16:42;;;;;;;;;;;26.90;60.50;;;;;;4950949;28;19914;-77
2022/10/28 12:19:11;;;;;;;;;;;27.00;60.50;;;;;;4938572;28;19910;-76
2022/10/28 12:21:56;;;;;;;;;;;26.30;64.40;;;;;;4952100;28;20278;-76
2022/10/28 12:24:22;;;;;;;;;;;25.90;65.00;;;;;;4951896;28;20065;-76
2022/10/28 12:26:50;;;;;;;;;;;25.70;65.90;;;;;;4951094;28;20329;-76
2022/10/28 12:29:20;;;;;;;;;;;26.70;63.40;;;;;;4951865;28;19932;-76
2022/10/28 12:31:47;;;;;;;;;;;29.50;58.30;;;;;;4951096;28;20104;-77
2022/10/28 12:34:15;;;;;;;;;;;30.00;56.40;;;;;;4951006;28;20286;-76
2022/10/28 12:36:44;;;;;;;;;;;30.60;54.20;;;;;;4951648;28;19917;-76
2022/10/28 12:39:21;;;;;;;;;;;31.80;53.40;;;;;;4951351;28;19910;-77
2022/10/28 12:42:00;;;;;;;;;;;34.50;48.70;;;;;;4950805;28;20413;-77
2022/10/28 12:44:27;;;;;;;;;;;35.40;45.00;;;;;;4950767;28;19914;-76
2022/10/28 12:46:56;;;;;;;;;;;35.20;45.50;;;;;;4951284;28;19913;-77
2022/10/28 12:49:35;;;;;;;;;;;35.70;45.20;;;;;;4950277;28;20497;-77
2022/10/28 12:52:06;;;;;;;;;;;35.50;44.70;;;;;;4951239;28;19911;-77
2022/10/28 12:54:32;;;;;;;;;;;36.30;42.90;;;;;;4951029;28;20477;-77
2022/10/28 12:57:08;;;;;;;;;;;35.50;44.80;;;;;;4951053;29;20010;-75
2022/10/28 12:59:38;;;;;;;;;;;35.80;43.30;;;;;;4950996;28;19918;-77
2022/10/28 13:02:06;;;;;;;;;;;36.80;44.00;;;;;;4950402;28;19976;-77
2022/10/28 13:04:32;;;;;;;;;;;37.00;42.20;;;;;;4951114;28;20350;-76
2022/10/28 13:07:11;;;;;;;;;;;37.50;41.40;;;;;;4944778;29;19915;-75
2022/10/28 13:09:49;;;;;;;;;;;35.20;43.90;;;;;;4951076;28;19907;-77
2022/10/28 13:12:33;;;;;;;;;;;35.50;44.40;;;;;;4951075;28;19906;-75
2022/10/28 13:15:08;;;;;;;;;;;33.20;49.20;;;;;;4949326;28;20145;-75
2022/10/28 13:17:39;;;;;;;;;;;30.50;51.80;;;;;;4947853;28;19914;-77
2022/10/28 13:20:23;;;;;;;;;;;28.80;55.40;;;;;;4944117;28;19968;-76
2022/10/28 13:22:53;;;;;;;;;;;27.70;58.20;;;;;;4948045;29;20417;-77
2022/10/28 13:25:19;;;;;;;;;;;26.80;61.40;;;;;;4950832;28;19930;-76
2022/10/28 13:27:44;;;;;;;;;;;26.30;62.60;;;;;;4950302;29;19910;-76
2022/10/28 13:30:17;;;;;;;;;;;25.80;63.80;;;;;;4949469;29;20395;-77
2022/10/28 13:32:42;;;;;;;;;;;25.60;65.30;;;;;;4949167;28;19914;-76
2022/10/28 13:35:14;;;;;;;;;;;25.30;67.60;;;;;;4946586;28;19915;-77
2022/10/28 13:37:43;;;;;;;;;;;25.10;67.20;;;;;;4948041;28;20393;-76
2022/10/28 13:40:19;;;;;;;;;;;25.00;67.70;;;;;;4948734;29;19968;-76
2022/10/28 13:42:45;;;;;;;;;;;24.90;69.20;;;;;;4950527;28;19910;-76
2022/10/28 13:45:29;;;;;;;;;;;24.70;70.20;;;;;;4949896;28;19918;-75
2022/10/28 13:48:15;;;;;;;;;;;24.80;70.20;;;;;;4950060;28;19921;-75
2022/10/28 13:50:40;;;;;;;;;;;24.80;70.00;;;;;;4948583;29;19914;-75
2022/10/28 13:53:25;;;;;;;;;;;24.50;70.70;;;;;;4942863;28;19917;-76
2022/10/28 13:55:55;;;;;;;;;;;24.70;70.90;;;;;;4949345;29;19922;-75
2022/10/28 13:58:21;;;;;;;;;;;25.20;69.80;;;;;;4950943;28;19906;-76
2022/10/28 14:00:47;;;;;;;;;;;25.20;69.90;;;;;;4946524;28;19950;-76
2022/10/28 14:03:18;;;;;;;;;;;26.10;68.00;;;;;;4949937;29;19956;-76
2022/10/28 14:05:43;;;;;;;;;;;26.30;67.10;;;;;;4949623;28;20359;-76
2022/10/28 14:08:25;;;;;;;;;;;25.50;69.10;;;;;;4949044;29;19910;-76
2022/10/28 14:10:59;;;;;;;;;;;25.30;70.40;;;;;;4950521;28;19906;-75
2022/10/28 14:13:24;;;;;;;;;;;25.20;71.00;;;;;;4950605;28;19957;-76
2022/10/28 14:16:10;;;;;;;;;;;25.30;71.20;;;;;;4947910;28;20314;-76
2022/10/28 14:18:35;;;;;;;;;;;25.90;69.40;;;;;;4948903;29;19965;-77
2022/10/28 14:21:01;;;;;;;;;;;26.70;68.60;;;;;;4947650;29;19910;-76
2022/10/28 14:23:26;;;;;;;;;;;27.10;66.00;;;;;;4940896;28;19918;-77
2022/10/28 14:25:55;;;;;;;;;;;26.10;68.10;;;;;;4939009;29;20370;-77
2022/10/28 14:28:26;;;;;;;;;;;25.30;70.30;;;;;;4944946;29;19962;-76